Time,TemperatureF,DewpointF,PressureIn,WindDirection,WindDirectionDegrees,WindSpeedMPH,WindSpeedGustMPH,Humidity,HourlyPrecipIn,Conditions,Clouds,dailyrainin,SoftwareType,DateUTC
2013-03-24 00:01:00,8.0,3.0,-100.00,North,354,0.0,4.0,79,-99.99,,,-99.99,,2013-03-24 06:01:00,
2013-03-24 00:12:00,8.0,3.0,-100.00,North,354,0.0,4.0,79,-99.99,,,-99.99,,2013-03-24 06:12:00,
2013-03-24 00:21:00,8.0,2.0,-100.00,North,351,0.0,1.0,77,-99.99,,,-99.99,,2013-03-24 06:21:00,
2013-03-24 00:32:00,8.0,3.0,-100.00,WSW,256,1.0,2.0,78,-99.99,,,-99.99,,2013-03-24 06:32:00,
2013-03-24 00:42:00,8.0,2.0,-100.00,NNW,339,2.0,3.0,77,-99.99,,,-99.99,,2013-03-24 06:42:00,
2013-03-24 00:52:00,6.0,2.0,-100.00,NW,325,4.0,4.0,79,-99.99,,,-99.99,,2013-03-24 06:52:00,
2013-03-24 01:02:00,7.0,2.0,-100.00,NNW,327,1.0,3.0,79,-99.99,,,-99.99,,2013-03-24 07:02:00,
2013-03-24 01:11:00,7.0,2.0,-100.00,North,9,1.0,2.0,80,-99.99,,,-99.99,,2013-03-24 07:11:00,
2013-03-24 01:21:00,7.0,2.0,-100.00,NNE,31,3.0,3.0,80,-99.99,,,-99.99,,2013-03-24 07:21:00,
2013-03-24 01:32:00,7.0,2.0,-100.00,ENE,59,2.0,3.0,80,-99.99,,,-99.99,,2013-03-24 07:32:00,
2013-03-24 01:42:00,7.0,2.0,-100.00,North,0,0.0,2.0,80,-99.99,,,-99.99,,2013-03-24 07:42:00,
2013-03-24 01:52:00,7.0,2.0,-100.00,North,0,0.0,0.0,79,-99.99,,,-99.99,,2013-03-24 07:52:00,
2013-03-24 02:02:00,7.0,2.0,-100.00,North,0,0.0,0.0,79,-99.99,,,-99.99,,2013-03-24 08:02:00,
2013-03-24 02:12:00,6.0,1.0,-100.00,North,7,3.0,4.0,80,-99.99,,,-99.99,,2013-03-24 08:12:00,
2013-03-24 02:21:00,6.0,1.0,-100.00,North,7,3.0,4.0,80,-99.99,,,-99.99,,2013-03-24 08:21:00,
2013-03-24 02:31:00,6.0,1.0,-100.00,NNW,339,0.0,4.0,80,-99.99,,,-99.99,,2013-03-24 08:31:00,
2013-03-24 02:41:00,5.0,1.0,-100.00,North,0,0.0,1.0,81,-99.99,,,-99.99,,2013-03-24 08:41:00,
2013-03-24 02:51:00,5.0,1.0,-100.00,North,0,0.0,1.0,81,-99.99,,,-99.99,,2013-03-24 08:51:00,
2013-03-24 03:02:00,5.0,1.0,-100.00,NE,47,5.0,5.0,79,-99.99,,,-99.99,,2013-03-24 09:02:00,
2013-03-24 03:12:00,5.0,1.0,-100.00,NE,47,5.0,5.0,79,-99.99,,,-99.99,,2013-03-24 09:12:00,
2013-03-24 03:21:00,6.0,1.0,-100.00,NE,52,2.0,5.0,81,-99.99,,,-99.99,,2013-03-24 09:21:00,
2013-03-24 03:33:00,5.0,0.0,-100.00,North,349,4.0,4.0,81,-99.99,,,-99.99,,2013-03-24 09:33:00,
2013-03-24 03:42:00,4.0,0.0,-100.00,North,357,2.0,3.0,81,-99.99,,,-99.99,,2013-03-24 09:42:00,
2013-03-24 03:52:00,4.0,0.0,-100.00,North,357,2.0,3.0,81,-99.99,,,-99.99,,2013-03-24 09:52:00,
2013-03-24 04:02:00,5.0,0.0,-100.00,North,0,0.0,1.0,81,-99.99,,,-99.99,,2013-03-24 10:02:00,
2013-03-24 04:12:00,5.0,0.0,-100.00,North,0,0.0,1.0,81,-99.99,,,-99.99,,2013-03-24 10:12:00,
2013-03-24 04:22:00,4.0,0.0,-100.00,WNW,287,0.0,2.0,81,-99.99,,,-99.99,,2013-03-24 10:22:00,
2013-03-24 04:32:00,4.0,0.0,-100.00,WNW,287,0.0,2.0,81,-99.99,,,-99.99,,2013-03-24 10:32:00,
2013-03-24 04:42:00,4.0,0.0,-100.00,WNW,297,1.0,3.0,80,-99.99,,,-99.99,,2013-03-24 10:42:00,
2013-03-24 04:52:00,4.0,-1.0,-100.00,NW,307,2.0,4.0,79,-99.99,,,-99.99,,2013-03-24 10:52:00,
2013-03-24 05:02:00,4.0,-1.0,-100.00,NW,307,2.0,4.0,79,-99.99,,,-99.99,,2013-03-24 11:02:00,
2013-03-24 05:12:00,4.0,-1.0,-100.00,NNW,327,1.0,2.0,79,-99.99,,,-99.99,,2013-03-24 11:12:00,
2013-03-24 05:21:00,4.0,-1.0,-100.00,NW,315,0.0,2.0,81,-99.99,,,-99.99,,2013-03-24 11:21:00,
2013-03-24 05:32:00,3.0,-1.0,-100.00,North,2,1.0,4.0,81,-99.99,,,-99.99,,2013-03-24 11:32:00,
2013-03-24 05:42:00,3.0,-1.0,-100.00,North,2,1.0,4.0,81,-99.99,,,-99.99,,2013-03-24 11:42:00,
2013-03-24 05:51:00,3.0,-1.0,-100.00,North,355,2.0,3.0,82,-99.99,,,-99.99,,2013-03-24 11:51:00,
2013-03-24 06:02:00,4.0,0.0,-100.00,NNW,333,2.0,3.0,82,-99.99,,,-99.99,,2013-03-24 12:02:00,
2013-03-24 06:12:00,4.0,0.0,-100.00,NNW,337,2.0,2.0,81,-99.99,,,-99.99,,2013-03-24 12:12:00,
2013-03-24 06:22:00,4.0,0.0,-100.00,NNW,345,1.0,2.0,81,-99.99,,,-99.99,,2013-03-24 12:22:00,
2013-03-24 06:32:00,3.0,-2.0,-100.00,NNE,25,0.0,2.0,80,-99.99,,,-99.99,,2013-03-24 12:32:00,
2013-03-24 06:42:00,5.0,0.0,-100.00,North,0,0.0,1.0,81,-99.99,,,-99.99,,2013-03-24 12:42:00,
2013-03-24 06:52:00,4.0,-1.0,-100.00,SE,131,0.0,1.0,79,-99.99,,,-99.99,,2013-03-24 12:52:00,
2013-03-24 07:02:00,3.0,-2.0,-100.00,NW,305,2.0,4.0,81,-99.99,,,-99.99,,2013-03-24 13:02:00,
2013-03-24 07:12:00,3.0,-2.0,-100.00,NW,305,2.0,4.0,81,-99.99,,,-99.99,,2013-03-24 13:12:00,
2013-03-24 07:22:00,3.0,-1.0,-100.00,NW,305,0.0,2.0,81,-99.99,,,-99.99,,2013-03-24 13:22:00,
2013-03-24 07:32:00,3.0,-1.0,-100.00,NW,305,1.0,2.0,81,-99.99,,,-99.99,,2013-03-24 13:32:00,
2013-03-24 07:42:00,3.0,-2.0,-100.00,NW,305,0.0,1.0,80,-99.99,,,-99.99,,2013-03-24 13:42:00,
2013-03-24 07:52:00,4.0,-1.0,-100.00,North,0,0.0,1.0,81,-99.99,,,-99.99,,2013-03-24 13:52:00,
2013-03-24 08:02:00,4.0,0.0,-100.00,North,0,0.0,0.0,80,-99.99,,,-99.99,,2013-03-24 14:02:00,
2013-03-24 08:12:00,5.0,0.0,-100.00,NNW,336,1.0,3.0,79,-99.99,,,-99.99,,2013-03-24 14:12:00,
2013-03-24 08:22:00,5.0,0.0,-100.00,NW,322,0.0,2.0,81,-99.99,,,-99.99,,2013-03-24 14:22:00,
2013-03-24 08:32:00,5.0,0.0,-100.00,NW,322,0.0,2.0,81,-99.99,,,-99.99,,2013-03-24 14:32:00,
2013-03-24 08:42:00,7.0,2.0,-100.00,SW,217,1.0,2.0,80,-99.99,,,-99.99,,2013-03-24 14:42:00,
2013-03-24 08:51:00,8.0,3.0,-100.00,WNW,285,0.0,2.0,80,-99.99,,,-99.99,,2013-03-24 14:51:00,
2013-03-24 09:01:00,8.0,3.0,-100.00,WNW,285,0.0,2.0,80,-99.99,,,-99.99,,2013-03-24 15:01:00,
2013-03-24 09:12:00,10.0,4.0,-100.00,NNE,17,1.0,2.0,77,-99.99,,,-99.99,,2013-03-24 15:12:00,
2013-03-24 09:22:00,10.0,4.0,-100.00,NNE,17,1.0,2.0,77,-99.99,,,-99.99,,2013-03-24 15:22:00,
2013-03-24 09:32:00,10.0,4.0,-100.00,NNW,337,2.0,3.0,77,-99.99,,,-99.99,,2013-03-24 15:32:00,
2013-03-24 09:43:00,11.0,5.0,-100.00,NNW,331,2.0,3.0,77,-99.99,,,-99.99,,2013-03-24 15:43:00,
2013-03-24 09:52:00,11.0,5.0,-100.00,NW,306,2.0,4.0,77,-99.99,,,-99.99,,2013-03-24 15:52:00,
2013-03-24 10:02:00,12.0,7.0,-100.00,NW,323,1.0,3.0,77,-99.99,,,-99.99,,2013-03-24 16:02:00,
2013-03-24 10:12:00,13.0,6.0,-100.00,NW,325,1.0,3.0,73,-99.99,,,-99.99,,2013-03-24 16:12:00,
2013-03-24 10:22:00,13.0,6.0,-100.00,NW,325,1.0,3.0,73,-99.99,,,-99.99,,2013-03-24 16:22:00,
2013-03-24 10:32:00,16.0,7.0,-100.00,NW,323,2.0,2.0,69,-99.99,,,-99.99,,2013-03-24 16:32:00,
2013-03-24 10:42:00,16.0,7.0,-100.00,NW,323,2.0,2.0,69,-99.99,,,-99.99,,2013-03-24 16:42:00,
2013-03-24 10:52:00,17.0,9.0,-100.00,WSW,242,2.0,4.0,70,-99.99,,,-99.99,,2013-03-24 16:52:00,
2013-03-24 11:02:00,18.0,10.0,-100.00,SW,227,1.0,3.0,69,-99.99,,,-99.99,,2013-03-24 17:02:00,
2013-03-24 11:12:00,18.0,10.0,-100.00,West,265,2.0,5.0,69,-99.99,,,-99.99,,2013-03-24 17:12:00,
2013-03-24 11:22:00,21.0,12.0,-100.00,WSW,256,1.0,4.0,69,-99.99,,,-99.99,,2013-03-24 17:22:00,
2013-03-24 11:32:00,21.0,12.0,-100.00,WSW,237,2.0,4.0,67,-99.99,,,-99.99,,2013-03-24 17:32:00,
2013-03-24 11:42:00,22.0,13.0,-100.00,NW,321,2.0,5.0,66,-99.99,,,-99.99,,2013-03-24 17:42:00,
2013-03-24 11:52:00,22.0,13.0,-100.00,NW,321,2.0,5.0,66,-99.99,,,-99.99,,2013-03-24 17:52:00,
2013-03-24 12:02:00,23.0,12.0,-100.00,WSW,248,4.0,8.0,62,-99.99,,,-99.99,,2013-03-24 18:02:00,
2013-03-24 12:12:00,23.0,12.0,-100.00,NW,305,3.0,8.0,61,-99.99,,,-99.99,,2013-03-24 18:12:00,
2013-03-24 12:21:00,23.0,12.0,-100.00,NW,305,3.0,8.0,61,-99.99,,,-99.99,,2013-03-24 18:21:00,
2013-03-24 12:32:00,24.0,12.0,-100.00,West,270,5.0,11.0,59,-99.99,,,-99.99,,2013-03-24 18:32:00,
2013-03-24 12:42:00,23.0,11.0,-100.00,NW,305,8.0,11.0,57,-99.99,,,-99.99,,2013-03-24 18:42:00,
2013-03-24 12:51:00,22.0,11.0,-100.00,NNW,332,9.0,16.0,63,-99.99,,,-99.99,,2013-03-24 18:51:00,
2013-03-24 13:02:00,22.0,13.0,-100.00,NW,318,9.0,12.0,67,-99.99,,,-99.99,,2013-03-24 19:02:00,
2013-03-24 13:12:00,23.0,14.0,-100.00,NNW,347,10.0,13.0,69,-99.99,,,-99.99,,2013-03-24 19:12:00,
2013-03-24 13:22:00,22.0,13.0,-100.00,NNW,341,9.0,12.0,65,-99.99,,,-99.99,,2013-03-24 19:22:00,
2013-03-24 13:31:00,23.0,13.0,-100.00,North,349,9.0,12.0,63,-99.99,,,-99.99,,2013-03-24 19:31:00,
2013-03-24 13:42:00,24.0,10.0,-100.00,North,7,7.0,11.0,55,-99.99,,,-99.99,,2013-03-24 19:42:00,
2013-03-24 13:52:00,23.0,13.0,-100.00,NW,307,14.0,18.0,64,-99.99,,,-99.99,,2013-03-24 19:52:00,
2013-03-24 14:02:00,23.0,15.0,-100.00,North,4,8.0,15.0,69,-99.99,,,-99.99,,2013-03-24 20:02:00,
2013-03-24 14:12:00,24.0,13.0,-100.00,North,356,6.0,11.0,61,-99.99,,,-99.99,,2013-03-24 20:12:00,
2013-03-24 14:22:00,24.0,15.0,-100.00,North,350,10.0,14.0,68,-99.99,,,-99.99,,2013-03-24 20:22:00,
2013-03-24 14:32:00,24.0,15.0,-100.00,North,350,10.0,14.0,68,-99.99,,,-99.99,,2013-03-24 20:32:00,
2013-03-24 14:42:00,24.0,14.0,-100.00,North,10,10.0,15.0,64,-99.99,,,-99.99,,2013-03-24 20:42:00,
2013-03-24 14:52:00,25.0,13.0,-100.00,North,1,10.0,17.0,60,-99.99,,,-99.99,,2013-03-24 20:52:00,
2013-03-24 15:02:00,24.0,13.0,-100.00,NNW,347,14.0,19.0,63,-99.99,,,-99.99,,2013-03-24 21:02:00,
2013-03-24 15:11:00,25.0,15.0,-100.00,NNE,20,10.0,13.0,66,-99.99,,,-99.99,,2013-03-24 21:11:00,
2013-03-24 15:22:00,25.0,15.0,-100.00,North,349,5.0,13.0,62,-99.99,,,-99.99,,2013-03-24 21:22:00,
2013-03-24 15:32:00,26.0,14.0,-100.00,NNW,336,13.0,16.0,60,-99.99,,,-99.99,,2013-03-24 21:32:00,
2013-03-24 15:43:00,25.0,13.0,-100.00,North,351,7.0,16.0,58,-99.99,,,-99.99,,2013-03-24 21:43:00,
2013-03-24 15:52:00,25.0,15.0,-100.00,NW,324,11.0,18.0,66,-99.99,,,-99.99,,2013-03-24 21:52:00,
2013-03-24 16:02:00,25.0,16.0,-100.00,NNE,19,9.0,13.0,66,-99.99,,,-99.99,,2013-03-24 22:02:00,
2013-03-24 16:12:00,26.0,15.0,-100.00,NNE,28,11.0,14.0,63,-99.99,,,-99.99,,2013-03-24 22:12:00,
2013-03-24 16:22:00,26.0,11.0,-100.00,WNW,299,3.0,12.0,51,-99.99,,,-99.99,,2013-03-24 22:22:00,
2013-03-24 16:32:00,26.0,11.0,-100.00,WNW,299,3.0,12.0,51,-99.99,,,-99.99,,2013-03-24 22:32:00,
2013-03-24 16:42:00,26.0,12.0,-100.00,North,356,7.0,11.0,53,-99.99,,,-99.99,,2013-03-24 22:42:00,
2013-03-24 16:52:00,25.0,14.0,-100.00,NW,326,11.0,12.0,60,-99.99,,,-99.99,,2013-03-24 22:52:00,
2013-03-24 17:02:00,27.0,12.0,-100.00,North,1,4.0,11.0,52,-99.99,,,-99.99,,2013-03-24 23:02:00,
2013-03-24 17:11:00,26.0,12.0,-100.00,NW,308,14.0,15.0,53,-99.99,,,-99.99,,2013-03-24 23:11:00,
2013-03-24 17:22:00,26.0,12.0,-100.00,NW,316,12.0,15.0,52,-99.99,,,-99.99,,2013-03-24 23:22:00,
2013-03-24 17:32:00,27.0,12.0,-100.00,NW,320,11.0,13.0,53,-99.99,,,-99.99,,2013-03-24 23:32:00,
2013-03-24 17:42:00,27.0,13.0,-100.00,NW,317,9.0,13.0,53,-99.99,,,-99.99,,2013-03-24 23:42:00,
2013-03-24 17:52:00,28.0,13.0,-100.00,NW,307,10.0,14.0,52,-99.99,,,-99.99,,2013-03-24 23:52:00,
2013-03-24 18:02:00,28.0,14.0,-100.00,WNW,291,9.0,13.0,55,-99.99,,,-99.99,,2013-03-25 00:02:00,
2013-03-24 18:12:00,27.0,12.0,-100.00,NW,319,9.0,13.0,51,-99.99,,,-99.99,,2013-03-25 00:12:00,
2013-03-24 18:22:00,27.0,12.0,-100.00,NW,319,9.0,13.0,51,-99.99,,,-99.99,,2013-03-25 00:22:00,
2013-03-24 18:32:00,27.0,11.0,-100.00,NW,310,9.0,13.0,49,-99.99,,,-99.99,,2013-03-25 00:32:00,
2013-03-24 18:42:00,27.0,11.0,-100.00,West,275,8.0,11.0,48,-99.99,,,-99.99,,2013-03-25 00:42:00,
2013-03-24 18:52:00,27.0,11.0,-100.00,West,275,8.0,11.0,48,-99.99,,,-99.99,,2013-03-25 00:52:00,
2013-03-24 19:02:00,28.0,12.0,-100.00,NW,314,8.0,11.0,50,-99.99,,,-99.99,,2013-03-25 01:02:00,
2013-03-24 19:12:00,27.0,10.0,-100.00,NW,320,5.0,8.0,47,-99.99,,,-99.99,,2013-03-25 01:12:00,
2013-03-24 19:21:00,26.0,10.0,-100.00,NW,319,7.0,8.0,49,-99.99,,,-99.99,,2013-03-25 01:21:00,
2013-03-24 19:32:00,26.0,10.0,-100.00,NW,316,6.0,9.0,50,-99.99,,,-99.99,,2013-03-25 01:32:00,
2013-03-24 19:42:00,26.0,12.0,-100.00,NW,323,7.0,7.0,55,-99.99,,,-99.99,,2013-03-25 01:42:00,
2013-03-24 19:52:00,26.0,12.0,-100.00,NW,323,7.0,7.0,55,-99.99,,,-99.99,,2013-03-25 01:52:00,
2013-03-24 20:01:00,25.0,11.0,-100.00,NNW,334,6.0,8.0,53,-99.99,,,-99.99,,2013-03-25 02:01:00,
2013-03-24 20:11:00,25.0,11.0,-100.00,North,359,6.0,7.0,56,-99.99,,,-99.99,,2013-03-25 02:11:00,
2013-03-24 20:21:00,25.0,11.0,-100.00,North,359,6.0,7.0,56,-99.99,,,-99.99,,2013-03-25 02:21:00,
2013-03-24 20:32:00,23.0,12.0,-100.00,North,350,3.0,8.0,62,-99.99,,,-99.99,,2013-03-25 02:32:00,
2013-03-24 20:42:00,23.0,12.0,-100.00,North,350,3.0,8.0,62,-99.99,,,-99.99,,2013-03-25 02:42:00,
2013-03-24 20:51:00,21.0,12.0,-100.00,NNW,340,4.0,4.0,67,-99.99,,,-99.99,,2013-03-25 02:51:00,
2013-03-24 21:02:00,22.0,12.0,-100.00,North,1,2.0,4.0,65,-99.99,,,-99.99,,2013-03-25 03:02:00,
2013-03-24 21:12:00,20.0,11.0,-100.00,West,279,5.0,5.0,67,-99.99,,,-99.99,,2013-03-25 03:12:00,
2013-03-24 21:22:00,20.0,11.0,-100.00,West,279,5.0,5.0,67,-99.99,,,-99.99,,2013-03-25 03:22:00,
2013-03-24 21:33:00,19.0,11.0,-100.00,WNW,282,3.0,5.0,69,-99.99,,,-99.99,,2013-03-25 03:33:00,
2013-03-24 21:42:00,20.0,11.0,-100.00,SSW,210,2.0,3.0,67,-99.99,,,-99.99,,2013-03-25 03:42:00,
2013-03-24 21:52:00,20.0,10.0,-100.00,WNW,286,3.0,4.0,65,-99.99,,,-99.99,,2013-03-25 03:52:00,
2013-03-24 22:02:00,20.0,10.0,-100.00,WNW,286,3.0,4.0,65,-99.99,,,-99.99,,2013-03-25 04:02:00,
2013-03-24 22:12:00,19.0,10.0,-100.00,West,274,2.0,3.0,68,-99.99,,,-99.99,,2013-03-25 04:12:00,
2013-03-24 22:22:00,19.0,10.0,-100.00,West,274,2.0,3.0,68,-99.99,,,-99.99,,2013-03-25 04:22:00,
2013-03-24 22:32:00,17.0,10.0,-100.00,NW,310,3.0,4.0,72,-99.99,,,-99.99,,2013-03-25 04:32:00,
2013-03-24 22:42:00,17.0,10.0,-100.00,NW,318,3.0,4.0,72,-99.99,,,-99.99,,2013-03-25 04:42:00,
2013-03-24 22:52:00,16.0,10.0,-100.00,North,349,3.0,3.0,74,-99.99,,,-99.99,,2013-03-25 04:52:00,
2013-03-24 23:02:00,16.0,9.0,-100.00,North,0,0.0,3.0,73,-99.99,,,-99.99,,2013-03-25 05:02:00,
2013-03-24 23:12:00,16.0,9.0,-100.00,SW,228,0.0,2.0,73,-99.99,,,-99.99,,2013-03-25 05:12:00,
2013-03-24 23:22:00,16.0,9.0,-100.00,SW,228,0.0,2.0,73,-99.99,,,-99.99,,2013-03-25 05:22:00,
2013-03-24 23:32:00,16.0,8.0,-100.00,North,2,2.0,3.0,72,-99.99,,,-99.99,,2013-03-25 05:32:00,
2013-03-24 23:42:00,15.0,8.0,-100.00,North,7,3.0,3.0,73,-99.99,,,-99.99,,2013-03-25 05:42:00,
2013-03-24 23:51:00,14.0,8.0,-100.00,NNW,348,2.0,3.0,75,-99.99,,,-99.99,,2013-03-25 05:51:00,